sensor_id;sensor_type;location;lat;lon;timestamp;P1;durP1;ratioP1;P2;durP2;ratioP2
7051;SDS011;3567;52.444;13.556;2022-10-31T00:02:07;54.58;;;34.55;;
7051;SDS011;3567;52.444;13.556;2022-10-31T00:04:32;56.05;;;34.70;;
7051;SDS011;3567;52.444;13.556;2022-10-31T00:06:58;49.53;;;32.40;;
7051;SDS011;3567;52.444;13.556;2022-10-31T00:09:23;53.85;;;34.08;;
7051;SDS011;3567;52.444;13.556;2022-10-31T00:11:48;49.67;;;32.97;;
7051;SDS011;3567;52.444;13.556;2022-10-31T00:14:14;55.88;;;33.45;;
7051;SDS011;3567;52.444;13.556;2022-10-31T00:16:40;53.60;;;34.40;;
7051;SDS011;3567;52.444;13.556;2022-10-31T00:19:08;46.67;;;30.85;;
7051;SDS011;3567;52.444;13.556;2022-10-31T00:21:34;47.17;;;30.70;;
7051;SDS011;3567;52.444;13.556;2022-10-31T00:24:00;53.17;;;32.60;;
7051;SDS011;3567;52.444;13.556;2022-10-31T00:26:29;46.60;;;33.10;;
7051;SDS011;3567;52.444;13.556;2022-10-31T00:28:56;58.95;;;32.97;;
7051;SDS011;3567;52.444;13.556;2022-10-31T00:31:22;54.50;;;35.03;;
7051;SDS011;3567;52.444;13.556;2022-10-31T00:33:48;46.85;;;31.20;;
7051;SDS011;3567;52.444;13.556;2022-10-31T00:36:15;44.65;;;29.77;;
7051;SDS011;3567;52.444;13.556;2022-10-31T00:38:42;47.50;;;31.02;;
7051;SDS011;3567;52.444;13.556;2022-10-31T00:41:09;49.03;;;31.15;;
7051;SDS011;3567;52.444;13.556;2022-10-31T00:43:35;45.45;;;31.23;;
7051;SDS011;3567;52.444;13.556;2022-10-31T00:46:00;45.35;;;30.05;;
7051;SDS011;3567;52.444;13.556;2022-10-31T00:48:26;43.17;;;29.58;;
7051;SDS011;3567;52.444;13.556;2022-10-31T00:50:51;48.03;;;29.63;;
7051;SDS011;3567;52.444;13.556;2022-10-31T00:53:17;40.00;;;26.33;;
7051;SDS011;3567;52.444;13.556;2022-10-31T00:55:42;44.35;;;28.48;;
7051;SDS011;3567;52.444;13.556;2022-10-31T00:58:08;39.90;;;26.67;;
7051;SDS011;3567;52.444;13.556;2022-10-31T01:00:33;44.03;;;28.95;;
7051;SDS011;3567;52.444;13.556;2022-10-31T01:02:59;35.03;;;26.02;;
7051;SDS011;3567;52.444;13.556;2022-10-31T01:05:24;45.47;;;28.05;;
7051;SDS011;3567;52.444;13.556;2022-10-31T01:07:50;47.40;;;28.27;;
7051;SDS011;3567;52.444;13.556;2022-10-31T01:10:15;41.67;;;28.88;;
7051;SDS011;3567;52.444;13.556;2022-10-31T01:12:43;36.47;;;26.15;;
7051;SDS011;3567;52.444;13.556;2022-10-31T01:15:12;35.35;;;24.40;;
7051;SDS011;3567;52.444;13.556;2022-10-31T01:17:39;33.45;;;23.95;;
7051;SDS011;3567;52.444;13.556;2022-10-31T01:20:05;32.15;;;23.98;;
7051;SDS011;3567;52.444;13.556;2022-10-31T01:22:32;32.70;;;22.25;;
7051;SDS011;3567;52.444;13.556;2022-10-31T01:24:58;34.65;;;24.40;;
7051;SDS011;3567;52.444;13.556;2022-10-31T01:27:24;37.03;;;23.25;;
7051;SDS011;3567;52.444;13.556;2022-10-31T01:29:49;32.80;;;22.10;;
7051;SDS011;3567;52.444;13.556;2022-10-31T01:32:15;35.15;;;25.23;;
7051;SDS011;3567;52.444;13.556;2022-10-31T01:34:40;33.90;;;25.02;;
7051;SDS011;3567;52.444;13.556;2022-10-31T01:37:06;37.55;;;23.48;;
7051;SDS011;3567;52.444;13.556;2022-10-31T01:39:31;34.08;;;23.77;;
7051;SDS011;3567;52.444;13.556;2022-10-31T01:41:57;33.50;;;23.45;;
7051;SDS011;3567;52.444;13.556;2022-10-31T01:46:52;26.15;;;21.13;;
7051;SDS011;3567;52.444;13.556;2022-10-31T01:49:23;32.78;;;22.48;;
7051;SDS011;3567;52.444;13.556;2022-10-31T01:51:52;37.50;;;23.63;;
7051;SDS011;3567;52.444;13.556;2022-10-31T01:54:21;28.58;;;21.95;;
7051;SDS011;3567;52.444;13.556;2022-10-31T01:56:52;31.02;;;22.80;;
7051;SDS011;3567;52.444;13.556;2022-10-31T01:59:20;27.13;;;21.02;;
7051;SDS011;3567;52.444;13.556;2022-10-31T02:01:47;29.90;;;21.73;;
7051;SDS011;3567;52.444;13.556;2022-10-31T02:04:14;29.60;;;20.95;;
7051;SDS011;3567;52.444;13.556;2022-10-31T02:09:12;30.23;;;22.60;;
7051;SDS011;3567;52.444;13.556;2022-10-31T02:11:38;31.48;;;21.88;;
7051;SDS011;3567;52.444;13.556;2022-10-31T02:14:06;30.90;;;23.38;;
7051;SDS011;3567;52.444;13.556;2022-10-31T02:16:31;27.85;;;22.33;;
7051;SDS011;3567;52.444;13.556;2022-10-31T02:18:57;29.42;;;22.33;;
7051;SDS011;3567;52.444;13.556;2022-10-31T02:21:32;36.65;;;22.75;;
7051;SDS011;3567;52.444;13.556;2022-10-31T02:26:58;32.65;;;21.42;;
7051;SDS011;3567;52.444;13.556;2022-10-31T02:34:52;30.55;;;19.85;;
7051;SDS011;3567;52.444;13.556;2022-10-31T02:37:30;29.83;;;19.38;;
7051;SDS011;3567;52.444;13.556;2022-10-31T02:45:30;28.05;;;19.38;;
7051;SDS011;3567;52.444;13.556;2022-10-31T02:48:01;26.67;;;20.90;;
7051;SDS011;3567;52.444;13.556;2022-10-31T02:50:33;29.58;;;19.27;;
7051;SDS011;3567;52.444;13.556;2022-10-31T02:53:02;28.55;;;19.70;;
7051;SDS011;3567;52.444;13.556;2022-10-31T02:57:54;35.13;;;22.10;;
7051;SDS011;3567;52.444;13.556;2022-10-31T03:00:24;32.08;;;20.23;;
7051;SDS011;3567;52.444;13.556;2022-10-31T03:10:54;25.77;;;18.48;;
7051;SDS011;3567;52.444;13.556;2022-10-31T03:19:16;23.73;;;18.67;;
7051;SDS011;3567;52.444;13.556;2022-10-31T03:21:58;23.90;;;17.13;;
7051;SDS011;3567;52.444;13.556;2022-10-31T03:24:26;26.23;;;18.33;;
7051;SDS011;3567;52.444;13.556;2022-10-31T03:26:56;24.90;;;18.83;;
7051;SDS011;3567;52.444;13.556;2022-10-31T03:29:25;21.17;;;17.08;;
7051;SDS011;3567;52.444;13.556;2022-10-31T03:31:57;30.77;;;19.63;;
7051;SDS011;3567;52.444;13.556;2022-10-31T03:34:32;28.60;;;18.58;;
7051;SDS011;3567;52.444;13.556;2022-10-31T03:37:01;24.02;;;16.77;;
7051;SDS011;3567;52.444;13.556;2022-10-31T03:39:31;23.58;;;18.35;;
7051;SDS011;3567;52.444;13.556;2022-10-31T03:44:29;26.83;;;17.60;;
7051;SDS011;3567;52.444;13.556;2022-10-31T03:46:57;28.55;;;19.00;;
7051;SDS011;3567;52.444;13.556;2022-10-31T03:49:23;25.83;;;17.67;;
7051;SDS011;3567;52.444;13.556;2022-10-31T03:54:24;24.50;;;17.08;;
7051;SDS011;3567;52.444;13.556;2022-10-31T03:56:55;23.77;;;16.33;;
7051;SDS011;3567;52.444;13.556;2022-10-31T03:59:30;28.58;;;19.38;;
7051;SDS011;3567;52.444;13.556;2022-10-31T04:02:05;21.90;;;15.90;;
7051;SDS011;3567;52.444;13.556;2022-10-31T04:04:33;24.70;;;16.45;;
7051;SDS011;3567;52.444;13.556;2022-10-31T04:07:00;19.70;;;17.10;;
7051;SDS011;3567;52.444;13.556;2022-10-31T04:09:28;30.20;;;20.75;;
7051;SDS011;3567;52.444;13.556;2022-10-31T04:11:58;24.17;;;17.40;;
7051;SDS011;3567;52.444;13.556;2022-10-31T04:14:26;21.33;;;15.98;;
7051;SDS011;3567;52.444;13.556;2022-10-31T04:16:54;28.98;;;19.42;;
7051;SDS011;3567;52.444;13.556;2022-10-31T04:19:20;26.75;;;18.25;;
7051;SDS011;3567;52.444;13.556;2022-10-31T04:21:45;30.48;;;20.63;;
7051;SDS011;3567;52.444;13.556;2022-10-31T04:24:11;27.17;;;19.73;;
7051;SDS011;3567;52.444;13.556;2022-10-31T04:26:36;23.17;;;18.27;;
7051;SDS011;3567;52.444;13.556;2022-10-31T04:29:02;23.88;;;19.08;;
7051;SDS011;3567;52.444;13.556;2022-10-31T04:31:27;26.80;;;18.25;;
7051;SDS011;3567;52.444;13.556;2022-10-31T04:33:53;25.75;;;16.58;;
7051;SDS011;3567;52.444;13.556;2022-10-31T04:36:18;22.33;;;17.38;;
7051;SDS011;3567;52.444;13.556;2022-10-31T04:38:44;19.52;;;15.88;;
7051;SDS011;3567;52.444;13.556;2022-10-31T04:41:09;26.45;;;17.55;;
7051;SDS011;3567;52.444;13.556;2022-10-31T04:43:35;24.77;;;18.23;;
7051;SDS011;3567;52.444;13.556;2022-10-31T04:46:00;25.17;;;16.45;;
7051;SDS011;3567;52.444;13.556;2022-10-31T04:48:26;19.90;;;15.45;;
7051;SDS011;3567;52.444;13.556;2022-10-31T04:50:51;20.35;;;15.55;;
7051;SDS011;3567;52.444;13.556;2022-10-31T04:53:16;21.48;;;15.70;;
7051;SDS011;3567;52.444;13.556;2022-10-31T04:55:42;18.55;;;14.82;;
7051;SDS011;3567;52.444;13.556;2022-10-31T04:58:07;18.80;;;14.60;;
7051;SDS011;3567;52.444;13.556;2022-10-31T05:00:34;25.73;;;15.30;;
7051;SDS011;3567;52.444;13.556;2022-10-31T05:03:00;23.23;;;17.45;;
7051;SDS011;3567;52.444;13.556;2022-10-31T05:05:27;18.17;;;13.65;;
7051;SDS011;3567;52.444;13.556;2022-10-31T05:07:55;18.55;;;14.65;;
7051;SDS011;3567;52.444;13.556;2022-10-31T05:10:21;22.73;;;14.93;;
7051;SDS011;3567;52.444;13.556;2022-10-31T05:12:50;16.77;;;14.52;;
7051;SDS011;3567;52.444;13.556;2022-10-31T05:15:17;17.60;;;14.45;;
7051;SDS011;3567;52.444;13.556;2022-10-31T05:17:44;22.55;;;16.40;;
7051;SDS011;3567;52.444;13.556;2022-10-31T05:20:10;18.25;;;14.35;;
7051;SDS011;3567;52.444;13.556;2022-10-31T05:22:37;17.13;;;13.90;;
7051;SDS011;3567;52.444;13.556;2022-10-31T05:25:07;19.05;;;14.48;;
7051;SDS011;3567;52.444;13.556;2022-10-31T05:27:33;20.30;;;14.75;;
7051;SDS011;3567;52.444;13.556;2022-10-31T05:29:58;21.52;;;15.07;;
7051;SDS011;3567;52.444;13.556;2022-10-31T05:32:24;18.17;;;13.75;;
7051;SDS011;3567;52.444;13.556;2022-10-31T05:34:49;15.85;;;13.27;;
7051;SDS011;3567;52.444;13.556;2022-10-31T05:37:14;32.80;;;17.45;;
7051;SDS011;3567;52.444;13.556;2022-10-31T05:39:40;20.67;;;15.63;;
7051;SDS011;3567;52.444;13.556;2022-10-31T05:42:05;23.30;;;16.60;;
7051;SDS011;3567;52.444;13.556;2022-10-31T05:44:31;21.73;;;14.88;;
7051;SDS011;3567;52.444;13.556;2022-10-31T05:46:56;20.80;;;15.18;;
7051;SDS011;3567;52.444;13.556;2022-10-31T05:49:21;22.98;;;16.08;;
7051;SDS011;3567;52.444;13.556;2022-10-31T05:51:47;17.55;;;15.00;;
7051;SDS011;3567;52.444;13.556;2022-10-31T05:54:13;19.75;;;16.15;;
7051;SDS011;3567;52.444;13.556;2022-10-31T05:56:38;24.20;;;16.27;;
7051;SDS011;3567;52.444;13.556;2022-10-31T05:59:04;19.45;;;14.38;;
7051;SDS011;3567;52.444;13.556;2022-10-31T06:01:29;20.35;;;15.50;;
7051;SDS011;3567;52.444;13.556;2022-10-31T06:03:54;21.42;;;13.93;;
7051;SDS011;3567;52.444;13.556;2022-10-31T06:06:20;19.83;;;14.63;;
7051;SDS011;3567;52.444;13.556;2022-10-31T06:08:45;18.17;;;14.20;;
7051;SDS011;3567;52.444;13.556;2022-10-31T06:11:11;20.10;;;15.40;;
7051;SDS011;3567;52.444;13.556;2022-10-31T06:13:36;22.33;;;16.40;;
7051;SDS011;3567;52.444;13.556;2022-10-31T06:16:02;22.17;;;15.55;;
7051;SDS011;3567;52.444;13.556;2022-10-31T06:18:27;24.38;;;17.88;;
7051;SDS011;3567;52.444;13.556;2022-10-31T06:20:52;24.15;;;18.15;;
7051;SDS011;3567;52.444;13.556;2022-10-31T06:23:18;22.10;;;17.60;;
7051;SDS011;3567;52.444;13.556;2022-10-31T06:25:47;24.95;;;15.82;;
7051;SDS011;3567;52.444;13.556;2022-10-31T06:28:14;24.98;;;16.60;;
7051;SDS011;3567;52.444;13.556;2022-10-31T06:30:39;20.20;;;16.40;;
7051;SDS011;3567;52.444;13.556;2022-10-31T06:33:05;20.13;;;14.57;;
7051;SDS011;3567;52.444;13.556;2022-10-31T06:35:30;18.60;;;15.27;;
7051;SDS011;3567;52.444;13.556;2022-10-31T06:37:56;24.73;;;18.15;;
7051;SDS011;3567;52.444;13.556;2022-10-31T06:40:22;24.10;;;16.60;;
7051;SDS011;3567;52.444;13.556;2022-10-31T06:42:55;44.95;;;30.88;;
7051;SDS011;3567;52.444;13.556;2022-10-31T06:45:23;26.98;;;20.10;;
7051;SDS011;3567;52.444;13.556;2022-10-31T06:47:52;29.55;;;19.15;;
7051;SDS011;3567;52.444;13.556;2022-10-31T06:50:19;22.85;;;18.23;;
7051;SDS011;3567;52.444;13.556;2022-10-31T06:52:55;27.95;;;17.80;;
7051;SDS011;3567;52.444;13.556;2022-10-31T06:55:22;22.83;;;17.15;;
7051;SDS011;3567;52.444;13.556;2022-10-31T06:57:56;25.02;;;19.15;;
7051;SDS011;3567;52.444;13.556;2022-10-31T07:00:27;22.58;;;16.58;;
7051;SDS011;3567;52.444;13.556;2022-10-31T07:03:04;32.65;;;18.15;;
7051;SDS011;3567;52.444;13.556;2022-10-31T07:05:31;20.45;;;15.45;;
7051;SDS011;3567;52.444;13.556;2022-10-31T07:07:59;19.75;;;17.20;;
7051;SDS011;3567;52.444;13.556;2022-10-31T07:10:30;23.15;;;16.40;;
7051;SDS011;3567;52.444;13.556;2022-10-31T07:13:01;24.60;;;16.15;;
7051;SDS011;3567;52.444;13.556;2022-10-31T07:15:29;25.60;;;16.15;;
7051;SDS011;3567;52.444;13.556;2022-10-31T07:18:00;24.90;;;17.10;;
7051;SDS011;3567;52.444;13.556;2022-10-31T07:20:29;21.73;;;16.65;;
7051;SDS011;3567;52.444;13.556;2022-10-31T07:22:56;29.65;;;18.83;;
7051;SDS011;3567;52.444;13.556;2022-10-31T07:25:21;22.73;;;16.52;;
7051;SDS011;3567;52.444;13.556;2022-10-31T07:27:47;24.05;;;19.20;;
7051;SDS011;3567;52.444;13.556;2022-10-31T07:30:13;35.20;;;23.35;;
7051;SDS011;3567;52.444;13.556;2022-10-31T07:32:39;26.27;;;20.20;;
7051;SDS011;3567;52.444;13.556;2022-10-31T07:35:07;31.73;;;21.73;;
7051;SDS011;3567;52.444;13.556;2022-10-31T07:37:33;30.17;;;19.48;;
7051;SDS011;3567;52.444;13.556;2022-10-31T07:39:58;27.35;;;20.65;;
7051;SDS011;3567;52.444;13.556;2022-10-31T07:42:24;33.75;;;22.70;;
7051;SDS011;3567;52.444;13.556;2022-10-31T07:44:49;33.25;;;23.02;;
7051;SDS011;3567;52.444;13.556;2022-10-31T07:47:14;33.65;;;23.67;;
7051;SDS011;3567;52.444;13.556;2022-10-31T07:49:39;31.00;;;21.58;;
7051;SDS011;3567;52.444;13.556;2022-10-31T07:52:05;35.45;;;22.20;;
7051;SDS011;3567;52.444;13.556;2022-10-31T07:54:30;34.95;;;22.55;;
7051;SDS011;3567;52.444;13.556;2022-10-31T07:56:55;34.92;;;20.65;;
7051;SDS011;3567;52.444;13.556;2022-10-31T07:59:21;32.17;;;20.73;;
7051;SDS011;3567;52.444;13.556;2022-10-31T08:01:46;30.52;;;19.45;;
7051;SDS011;3567;52.444;13.556;2022-10-31T08:04:12;28.48;;;18.25;;
7051;SDS011;3567;52.444;13.556;2022-10-31T08:06:37;30.05;;;19.45;;
7051;SDS011;3567;52.444;13.556;2022-10-31T08:09:02;30.83;;;17.83;;
7051;SDS011;3567;52.444;13.556;2022-10-31T08:11:28;29.73;;;18.42;;
7051;SDS011;3567;52.444;13.556;2022-10-31T08:13:53;24.65;;;17.35;;
7051;SDS011;3567;52.444;13.556;2022-10-31T08:16:18;26.40;;;16.65;;
7051;SDS011;3567;52.444;13.556;2022-10-31T08:18:44;23.70;;;17.08;;
7051;SDS011;3567;52.444;13.556;2022-10-31T08:21:09;20.70;;;15.00;;
7051;SDS011;3567;52.444;13.556;2022-10-31T08:23:35;22.83;;;15.40;;
7051;SDS011;3567;52.444;13.556;2022-10-31T08:26:01;23.05;;;14.63;;
7051;SDS011;3567;52.444;13.556;2022-10-31T08:28:26;19.70;;;14.63;;
7051;SDS011;3567;52.444;13.556;2022-10-31T08:30:51;26.30;;;15.57;;
7051;SDS011;3567;52.444;13.556;2022-10-31T08:33:17;20.98;;;14.90;;
7051;SDS011;3567;52.444;13.556;2022-10-31T08:35:43;25.63;;;15.75;;
7051;SDS011;3567;52.444;13.556;2022-10-31T08:38:09;21.10;;;15.63;;
7051;SDS011;3567;52.444;13.556;2022-10-31T08:40:36;17.50;;;14.82;;
7051;SDS011;3567;52.444;13.556;2022-10-31T08:43:20;21.05;;;16.02;;
7051;SDS011;3567;52.444;13.556;2022-10-31T08:45:47;25.35;;;15.25;;
7051;SDS011;3567;52.444;13.556;2022-10-31T08:48:14;27.15;;;17.17;;
7051;SDS011;3567;52.444;13.556;2022-10-31T08:50:41;23.98;;;16.35;;
7051;SDS011;3567;52.444;13.556;2022-10-31T08:53:09;24.23;;;16.25;;
7051;SDS011;3567;52.444;13.556;2022-10-31T08:55:38;23.45;;;18.10;;
7051;SDS011;3567;52.444;13.556;2022-10-31T08:58:05;29.45;;;18.50;;
7051;SDS011;3567;52.444;13.556;2022-10-31T09:00:32;37.97;;;19.42;;
7051;SDS011;3567;52.444;13.556;2022-10-31T09:02:58;27.02;;;19.33;;
7051;SDS011;3567;52.444;13.556;2022-10-31T09:05:31;30.85;;;19.27;;
7051;SDS011;3567;52.444;13.556;2022-10-31T09:07:58;29.63;;;19.83;;
7051;SDS011;3567;52.444;13.556;2022-10-31T09:10:25;29.98;;;19.67;;
7051;SDS011;3567;52.444;13.556;2022-10-31T09:12:57;33.63;;;20.50;;
7051;SDS011;3567;52.444;13.556;2022-10-31T09:15:24;30.67;;;19.70;;
7051;SDS011;3567;52.444;13.556;2022-10-31T09:17:50;26.83;;;20.42;;
7051;SDS011;3567;52.444;13.556;2022-10-31T09:20:15;28.17;;;19.80;;
7051;SDS011;3567;52.444;13.556;2022-10-31T09:22:41;28.60;;;19.08;;
7051;SDS011;3567;52.444;13.556;2022-10-31T09:25:06;31.65;;;22.02;;
7051;SDS011;3567;52.444;13.556;2022-10-31T09:27:32;35.45;;;22.50;;
7051;SDS011;3567;52.444;13.556;2022-10-31T09:29:58;33.25;;;21.55;;
7051;SDS011;3567;52.444;13.556;2022-10-31T09:32:23;35.40;;;20.92;;
7051;SDS011;3567;52.444;13.556;2022-10-31T09:34:48;28.70;;;21.50;;
7051;SDS011;3567;52.444;13.556;2022-10-31T09:37:14;33.35;;;21.02;;
7051;SDS011;3567;52.444;13.556;2022-10-31T09:39:39;33.30;;;21.42;;
7051;SDS011;3567;52.444;13.556;2022-10-31T09:55:41;32.90;;;18.50;;
7051;SDS011;3567;52.444;13.556;2022-10-31T09:58:30;26.20;;;19.83;;
7051;SDS011;3567;52.444;13.556;2022-10-31T10:00:56;27.20;;;20.50;;
7051;SDS011;3567;52.444;13.556;2022-10-31T10:03:35;31.65;;;19.17;;
7051;SDS011;3567;52.444;13.556;2022-10-31T10:06:12;26.75;;;20.38;;
7051;SDS011;3567;52.444;13.556;2022-10-31T10:08:42;32.45;;;19.25;;
7051;SDS011;3567;52.444;13.556;2022-10-31T10:16:38;31.05;;;18.20;;
7051;SDS011;3567;52.444;13.556;2022-10-31T10:25:12;35.55;;;20.40;;
7051;SDS011;3567;52.444;13.556;2022-10-31T10:33:35;35.63;;;20.42;;
7051;SDS011;3567;52.444;13.556;2022-10-31T10:36:05;30.48;;;21.25;;
7051;SDS011;3567;52.444;13.556;2022-10-31T10:41:18;24.23;;;19.52;;
7051;SDS011;3567;52.444;13.556;2022-10-31T10:43:45;28.65;;;19.08;;
7051;SDS011;3567;52.444;13.556;2022-10-31T10:49:17;25.75;;;17.95;;
7051;SDS011;3567;52.444;13.556;2022-10-31T11:00:23;28.85;;;18.45;;
7051;SDS011;3567;52.444;13.556;2022-10-31T11:02:49;31.55;;;19.15;;
7051;SDS011;3567;52.444;13.556;2022-10-31T11:05:18;29.63;;;20.20;;
7051;SDS011;3567;52.444;13.556;2022-10-31T11:08:04;26.55;;;19.15;;
7051;SDS011;3567;52.444;13.556;2022-10-31T11:10:30;25.20;;;19.25;;
7051;SDS011;3567;52.444;13.556;2022-10-31T11:15:28;33.97;;;19.70;;
7051;SDS011;3567;52.444;13.556;2022-10-31T11:18:04;35.30;;;22.13;;
7051;SDS011;3567;52.444;13.556;2022-10-31T11:20:34;30.77;;;22.48;;
7051;SDS011;3567;52.444;13.556;2022-10-31T11:23:19;32.83;;;22.50;;
7051;SDS011;3567;52.444;13.556;2022-10-31T11:26:05;30.02;;;21.65;;
7051;SDS011;3567;52.444;13.556;2022-10-31T11:28:41;36.40;;;22.85;;
7051;SDS011;3567;52.444;13.556;2022-10-31T11:31:07;30.90;;;21.70;;
7051;SDS011;3567;52.444;13.556;2022-10-31T11:33:44;30.85;;;20.40;;
7051;SDS011;3567;52.444;13.556;2022-10-31T11:36:16;26.40;;;19.60;;
7051;SDS011;3567;52.444;13.556;2022-10-31T11:38:48;27.10;;;19.83;;
7051;SDS011;3567;52.444;13.556;2022-10-31T11:41:15;32.47;;;20.77;;
7051;SDS011;3567;52.444;13.556;2022-10-31T11:44:25;30.77;;;19.10;;
7051;SDS011;3567;52.444;13.556;2022-10-31T11:46:53;26.48;;;16.50;;
7051;SDS011;3567;52.444;13.556;2022-10-31T11:51:52;28.25;;;16.83;;
7051;SDS011;3567;52.444;13.556;2022-10-31T11:54:24;27.92;;;19.65;;
7051;SDS011;3567;52.444;13.556;2022-10-31T11:56:52;28.80;;;20.13;;
7051;SDS011;3567;52.444;13.556;2022-10-31T11:59:28;28.35;;;18.95;;
7051;SDS011;3567;52.444;13.556;2022-10-31T12:01:56;26.45;;;16.88;;
7051;SDS011;3567;52.444;13.556;2022-10-31T12:04:28;23.10;;;16.90;;
7051;SDS011;3567;52.444;13.556;2022-10-31T12:07:05;24.55;;;17.33;;
7051;SDS011;3567;52.444;13.556;2022-10-31T12:09:34;26.33;;;19.20;;
7051;SDS011;3567;52.444;13.556;2022-10-31T12:22:53;25.17;;;18.27;;
7051;SDS011;3567;52.444;13.556;2022-10-31T12:28:03;27.48;;;18.40;;
7051;SDS011;3567;52.444;13.556;2022-10-31T12:36:25;30.45;;;19.33;;
7051;SDS011;3567;52.444;13.556;2022-10-31T12:41:52;30.08;;;20.83;;
7051;SDS011;3567;52.444;13.556;2022-10-31T12:50:00;29.20;;;20.67;;
7051;SDS011;3567;52.444;13.556;2022-10-31T12:57:47;25.23;;;19.15;;
7051;SDS011;3567;52.444;13.556;2022-10-31T13:00:19;28.50;;;18.83;;
7051;SDS011;3567;52.444;13.556;2022-10-31T13:05:22;27.27;;;20.08;;
7051;SDS011;3567;52.444;13.556;2022-10-31T13:16:28;24.70;;;16.60;;
7051;SDS011;3567;52.444;13.556;2022-10-31T13:19:02;28.42;;;19.17;;
7051;SDS011;3567;52.444;13.556;2022-10-31T13:24:33;29.23;;;19.20;;
7051;SDS011;3567;52.444;13.556;2022-10-31T13:27:03;28.42;;;20.23;;
7051;SDS011;3567;52.444;13.556;2022-10-31T13:32:26;35.33;;;25.55;;
7051;SDS011;3567;52.444;13.556;2022-10-31T13:34:55;37.85;;;23.88;;
7051;SDS011;3567;52.444;13.556;2022-10-31T13:37:32;35.15;;;23.88;;
7051;SDS011;3567;52.444;13.556;2022-10-31T13:47:54;32.28;;;23.85;;
7051;SDS011;3567;52.444;13.556;2022-10-31T13:50:54;37.38;;;23.70;;
7051;SDS011;3567;52.444;13.556;2022-10-31T13:53:22;33.22;;;20.95;;
7051;SDS011;3567;52.444;13.556;2022-10-31T14:01:33;38.15;;;24.50;;
7051;SDS011;3567;52.444;13.556;2022-10-31T14:06:59;30.40;;;22.10;;
7051;SDS011;3567;52.444;13.556;2022-10-31T14:15:03;32.65;;;22.20;;
7051;SDS011;3567;52.444;13.556;2022-10-31T14:17:44;25.35;;;17.17;;
7051;SDS011;3567;52.444;13.556;2022-10-31T14:22:39;33.53;;;22.98;;
7051;SDS011;3567;52.444;13.556;2022-10-31T14:28:01;30.58;;;19.52;;
7051;SDS011;3567;52.444;13.556;2022-10-31T14:30:54;26.73;;;19.02;;
7051;SDS011;3567;52.444;13.556;2022-10-31T14:33:22;24.00;;;17.83;;
7051;SDS011;3567;52.444;13.556;2022-10-31T14:35:51;27.15;;;19.02;;
7051;SDS011;3567;52.444;13.556;2022-10-31T14:44:05;24.52;;;18.13;;
7051;SDS011;3567;52.444;13.556;2022-10-31T14:52:30;33.10;;;20.10;;
7051;SDS011;3567;52.444;13.556;2022-10-31T14:54:57;28.55;;;19.77;;
7051;SDS011;3567;52.444;13.556;2022-10-31T14:57:31;28.00;;;18.67;;
7051;SDS011;3567;52.444;13.556;2022-10-31T15:00:12;22.00;;;15.80;;
7051;SDS011;3567;52.444;13.556;2022-10-31T15:05:19;31.02;;;20.50;;
7051;SDS011;3567;52.444;13.556;2022-10-31T15:07:50;27.20;;;18.92;;
7051;SDS011;3567;52.444;13.556;2022-10-31T15:10:36;29.63;;;21.80;;
7051;SDS011;3567;52.444;13.556;2022-10-31T15:13:17;29.13;;;17.48;;
7051;SDS011;3567;52.444;13.556;2022-10-31T15:15:44;32.97;;;17.92;;
7051;SDS011;3567;52.444;13.556;2022-10-31T15:18:16;27.38;;;17.95;;
7051;SDS011;3567;52.444;13.556;2022-10-31T15:20:43;32.40;;;18.67;;
7051;SDS011;3567;52.444;13.556;2022-10-31T15:23:10;32.17;;;18.70;;
7051;SDS011;3567;52.444;13.556;2022-10-31T15:25:41;27.73;;;19.45;;
7051;SDS011;3567;52.444;13.556;2022-10-31T15:28:22;33.65;;;20.88;;
7051;SDS011;3567;52.444;13.556;2022-10-31T15:30:49;29.27;;;20.25;;
7051;SDS011;3567;52.444;13.556;2022-10-31T15:33:21;32.40;;;18.50;;
7051;SDS011;3567;52.444;13.556;2022-10-31T15:35:55;28.08;;;20.42;;
7051;SDS011;3567;52.444;13.556;2022-10-31T15:38:25;32.08;;;22.35;;
7051;SDS011;3567;52.444;13.556;2022-10-31T15:41:04;32.38;;;21.33;;
7051;SDS011;3567;52.444;13.556;2022-10-31T15:43:47;28.95;;;19.88;;
7051;SDS011;3567;52.444;13.556;2022-10-31T15:46:13;30.98;;;18.92;;
7051;SDS011;3567;52.444;13.556;2022-10-31T15:48:39;28.35;;;21.27;;
7051;SDS011;3567;52.444;13.556;2022-10-31T15:51:11;29.33;;;21.83;;
7051;SDS011;3567;52.444;13.556;2022-10-31T15:53:41;28.50;;;19.73;;
7051;SDS011;3567;52.444;13.556;2022-10-31T15:56:21;30.70;;;20.80;;
7051;SDS011;3567;52.444;13.556;2022-10-31T15:58:49;27.38;;;18.40;;
7051;SDS011;3567;52.444;13.556;2022-10-31T16:03:56;33.33;;;19.15;;
7051;SDS011;3567;52.444;13.556;2022-10-31T16:06:22;24.60;;;17.83;;
7051;SDS011;3567;52.444;13.556;2022-10-31T16:08:48;33.05;;;21.33;;
7051;SDS011;3567;52.444;13.556;2022-10-31T16:16:25;32.58;;;21.20;;
7051;SDS011;3567;52.444;13.556;2022-10-31T16:18:52;33.88;;;20.73;;
7051;SDS011;3567;52.444;13.556;2022-10-31T16:21:27;37.08;;;23.50;;
7051;SDS011;3567;52.444;13.556;2022-10-31T16:23:57;34.03;;;22.80;;
7051;SDS011;3567;52.444;13.556;2022-10-31T16:26:26;41.13;;;23.67;;
7051;SDS011;3567;52.444;13.556;2022-10-31T16:28:56;32.05;;;22.73;;
7051;SDS011;3567;52.444;13.556;2022-10-31T16:31:56;32.33;;;21.90;;
7051;SDS011;3567;52.444;13.556;2022-10-31T16:34:19;41.65;;;25.27;;
7051;SDS011;3567;52.444;13.556;2022-10-31T16:36:46;32.28;;;20.52;;
7051;SDS011;3567;52.444;13.556;2022-10-31T16:39:12;34.17;;;24.00;;
7051;SDS011;3567;52.444;13.556;2022-10-31T16:41:40;38.08;;;24.38;;
7051;SDS011;3567;52.444;13.556;2022-10-31T16:44:13;36.97;;;24.73;;
7051;SDS011;3567;52.444;13.556;2022-10-31T16:49:47;39.15;;;24.45;;
7051;SDS011;3567;52.444;13.556;2022-10-31T16:52:14;35.75;;;23.88;;
7051;SDS011;3567;52.444;13.556;2022-10-31T16:54:40;35.80;;;25.10;;
7051;SDS011;3567;52.444;13.556;2022-10-31T16:57:05;35.42;;;21.75;;
7051;SDS011;3567;52.444;13.556;2022-10-31T16:59:31;31.80;;;21.65;;
7051;SDS011;3567;52.444;13.556;2022-10-31T17:02:00;36.75;;;24.25;;
7051;SDS011;3567;52.444;13.556;2022-10-31T17:04:28;36.60;;;25.27;;
7051;SDS011;3567;52.444;13.556;2022-10-31T17:06:53;34.72;;;25.52;;
7051;SDS011;3567;52.444;13.556;2022-10-31T17:09:19;45.58;;;24.75;;
7051;SDS011;3567;52.444;13.556;2022-10-31T17:11:45;36.22;;;23.67;;
7051;SDS011;3567;52.444;13.556;2022-10-31T17:14:13;31.52;;;22.92;;
7051;SDS011;3567;52.444;13.556;2022-10-31T17:16:39;37.58;;;21.10;;
7051;SDS011;3567;52.444;13.556;2022-10-31T17:19:04;31.92;;;21.00;;
7051;SDS011;3567;52.444;13.556;2022-10-31T17:21:30;39.00;;;24.38;;
7051;SDS011;3567;52.444;13.556;2022-10-31T17:23:55;31.90;;;23.40;;
7051;SDS011;3567;52.444;13.556;2022-10-31T17:26:20;38.50;;;23.60;;
7051;SDS011;3567;52.444;13.556;2022-10-31T17:28:46;37.75;;;25.98;;
7051;SDS011;3567;52.444;13.556;2022-10-31T17:31:19;38.17;;;25.23;;
7051;SDS011;3567;52.444;13.556;2022-10-31T17:33:45;32.05;;;22.98;;
7051;SDS011;3567;52.444;13.556;2022-10-31T17:36:10;31.95;;;21.30;;
7051;SDS011;3567;52.444;13.556;2022-10-31T17:38:36;35.88;;;22.88;;
7051;SDS011;3567;52.444;13.556;2022-10-31T17:41:05;32.28;;;21.45;;
7051;SDS011;3567;52.444;13.556;2022-10-31T17:43:31;45.50;;;26.52;;
7051;SDS011;3567;52.444;13.556;2022-10-31T17:46:00;39.90;;;23.98;;
7051;SDS011;3567;52.444;13.556;2022-10-31T17:48:26;36.08;;;23.80;;
7051;SDS011;3567;52.444;13.556;2022-10-31T17:50:52;43.80;;;28.10;;
7051;SDS011;3567;52.444;13.556;2022-10-31T17:53:17;38.40;;;27.38;;
7051;SDS011;3567;52.444;13.556;2022-10-31T17:55:43;41.92;;;27.58;;